Cedar Rapids, Iowa
Current Conditions -  °F | °C
As of 12:36 AM on Wednesday 28 Jan 2015 (Local Time) from KCID Reporting Station
Haze Haze  
Wind Chill: 17°   Ceiling: 900
Heat Index: 27°   Visibility: 5mi
Dew Point: 24°   Wind: 10mph
Humidity: 89%   Direction: 140°SE
Pressure: 30.19"   Gusts: NA
Location:  41.98°N, 91.67°W
Report Text: KCID 280636Z AUTO 14009KT 5SM BR OVC009 M03/M04 A3019 RMK AO2 T10281044
Loading
Personal Weather Stations






























Interactive Weather Map New forecast layout! Learn more

10-Day Weather Forecast

Advertisements
Track Severe Weather on mobile